Time;durP1;ratioP1;P1;durP2;ratioP2;P2;SDS_P1;SDS_P2;PMS_P1;PMS_P2;Temp;Humidity;BMP_temperature;BMP_pressure;BME280_temperature;BME280_humidity;BME280_pressure;Samples;Min_cycle;Max_cycle;Signal;HPM_P1;HPM_P2
2023/01/20 00:00:45;;;;;;;5.50;3.30;;;16.00;61.20;;;;;;10422797;28;20754;-55
2023/01/20 00:05:52;;;;;;;5.22;3.50;;;15.90;61.20;;;;;;10411162;28;20108;-56
2023/01/20 00:10:53;;;;;;;5.57;3.63;;;16.00;61.20;;;;;;10410414;28;20057;-53
2023/01/20 00:15:54;;;;;;;4.15;3.05;;;16.00;61.10;;;;;;10434476;28;20104;-55
2023/01/20 00:20:54;;;;;;;4.03;3.28;;;16.00;61.00;;;;;;10415823;28;20023;-55
2023/01/20 00:25:55;;;;;;;4.13;3.15;;;16.10;60.70;;;;;;10442309;28;20061;-54
2023/01/20 00:30:56;;;;;;;5.40;3.63;;;16.10;60.80;;;;;;10422529;28;20029;-56
2023/01/20 00:35:56;;;;;;;5.05;3.53;;;16.10;60.80;;;;;;10408832;28;20417;-55
2023/01/20 00:40:57;;;;;;;4.38;3.33;;;16.00;60.80;;;;;;10435539;28;20101;-55
2023/01/20 00:45:58;;;;;;;5.78;3.75;;;16.00;61.50;;;;;;10428872;28;20045;-55
2023/01/20 00:50:59;;;;;;;6.25;3.33;;;16.00;60.80;;;;;;10413459;28;20602;-54
2023/01/20 00:56:00;;;;;;;3.92;3.03;;;16.00;60.80;;;;;;10430495;28;20074;-56
2023/01/20 01:01:01;;;;;;;5.30;3.50;;;16.00;60.90;;;;;;10448287;28;20128;-55
2023/01/20 01:06:12;;;;;;;6.55;3.85;;;16.00;60.90;;;;;;10417772;28;20068;-56
2023/01/20 01:11:13;;;;;;;5.50;3.42;;;16.00;60.90;;;;;;10406529;28;20057;-56
2023/01/20 01:16:15;;;;;;;4.60;2.78;;;16.00;61.00;;;;;;10406703;28;20128;-55
2023/01/20 01:21:16;;;;;;;5.10;3.30;;;16.00;60.90;;;;;;10414754;28;20676;-56
2023/01/20 01:26:16;;;;;;;4.18;3.20;;;16.00;61.00;;;;;;10428698;28;20024;-57
2023/01/20 01:31:20;;;;;;;6.15;3.60;;;16.00;60.90;;;;;;10430822;28;20025;-56
2023/01/20 01:36:21;;;;;;;4.60;3.67;;;16.00;60.90;;;;;;10420935;28;20036;-57
2023/01/20 01:41:21;;;;;;;3.40;2.60;;;16.00;61.00;;;;;;10421078;28;20105;-57
2023/01/20 01:46:22;;;;;;;5.95;2.83;;;16.00;60.90;;;;;;10434333;28;20033;-56
2023/01/20 01:51:28;;;;;;;3.78;2.78;;;16.00;60.90;;;;;;10438034;28;20040;-55
2023/01/20 01:56:29;;;;;;;6.10;3.38;;;16.00;60.80;;;;;;10435479;28;20068;-57
2023/01/20 02:01:33;;;;;;;4.50;3.25;;;16.00;60.90;;;;;;10445879;28;20062;-55
2023/01/20 02:06:51;;;;;;;4.18;2.92;;;16.00;60.80;;;;;;10445049;28;20036;-57
2023/01/20 02:11:58;;;;;;;5.20;3.13;;;16.00;60.90;;;;;;10445505;28;20060;-56
2023/01/20 02:17:22;;;;;;;5.10;2.70;;;16.00;60.80;;;;;;10411489;28;20061;-55
2023/01/20 02:22:54;;;;;;;4.93;3.65;;;16.00;60.80;;;;;;10418718;28;20021;-56
2023/01/20 02:28:57;;;;;;;3.22;2.53;;;16.00;60.80;;;;;;10452740;28;20491;-56
2023/01/20 02:34:15;;;;;;;3.75;2.80;;;16.00;60.70;;;;;;10417182;28;20041;-57
2023/01/20 02:39:43;;;;;;;4.88;2.83;;;16.10;60.60;;;;;;10405277;28;20018;-56
2023/01/20 02:44:58;;;;;;;4.20;2.72;;;16.00;60.70;;;;;;10415319;28;20644;-56
2023/01/20 02:50:43;;;;;;;4.20;2.60;;;16.00;60.70;;;;;;10410641;28;20033;-56
2023/01/20 02:55:47;;;;;;;3.95;2.70;;;16.00;60.70;;;;;;10443590;28;20511;-55
2023/01/20 03:01:02;;;;;;;4.20;2.92;;;16.00;60.70;;;;;;10404727;28;20028;-56
2023/01/20 03:06:12;;;;;;;3.67;2.78;;;16.00;60.80;;;;;;10403729;28;20025;-56
2023/01/20 03:11:13;;;;;;;3.95;2.95;;;16.00;60.70;;;;;;10410465;28;20053;-54
2023/01/20 03:16:19;;;;;;;3.85;2.70;;;16.00;60.70;;;;;;10467243;28;20676;-55
2023/01/20 03:21:20;;;;;;;4.75;3.08;;;16.00;60.70;;;;;;10443684;28;20458;-56
2023/01/20 03:26:22;;;;;;;4.95;3.10;;;16.00;60.70;;;;;;10437706;28;20072;-56
2023/01/20 03:31:33;;;;;;;4.28;2.67;;;16.00;60.60;;;;;;10424215;28;20036;-55
2023/01/20 03:36:34;;;;;;;4.55;2.97;;;16.00;60.70;;;;;;10410383;28;20030;-55
2023/01/20 03:41:58;;;;;;;4.93;3.17;;;16.00;60.60;;;;;;10411559;28;20017;-56
2023/01/20 03:47:33;;;;;;;4.50;3.05;;;16.00;60.70;;;;;;10442724;28;20096;-56
2023/01/20 03:52:43;;;;;;;3.85;2.60;;;16.00;60.70;;;;;;10432431;28;20091;-56
2023/01/20 03:58:07;;;;;;;5.30;3.33;;;16.00;60.70;;;;;;10409380;28;20497;-56
2023/01/20 04:03:30;;;;;;;4.35;2.92;;;16.00;60.60;;;;;;10443718;28;20108;-56
2023/01/20 04:08:36;;;;;;;4.93;3.00;;;16.00;60.60;;;;;;10450409;28;20499;-55
2023/01/20 04:13:36;;;;;;;5.50;3.45;;;16.00;60.50;;;;;;10449906;28;20076;-56
2023/01/20 04:18:44;;;;;;;5.05;3.30;;;16.00;60.60;;;;;;10425502;28;20026;-56
2023/01/20 04:23:55;;;;;;;4.03;3.13;;;16.00;60.50;;;;;;10438249;28;20021;-55
2023/01/20 04:28:56;;;;;;;5.28;3.15;;;16.00;60.60;;;;;;10419168;28;20033;-56
2023/01/20 04:33:56;;;;;;;5.45;3.90;;;16.00;60.50;;;;;;10409899;28;20076;-56
2023/01/20 04:38:57;;;;;;;4.93;3.28;;;16.00;60.50;;;;;;10415171;28;20032;-56
2023/01/20 04:43:58;;;;;;;5.28;3.35;;;16.00;60.50;;;;;;10436192;28;20035;-56
2023/01/20 04:48:58;;;;;;;4.93;3.70;;;16.00;60.40;;;;;;10418471;28;20097;-57
2023/01/20 04:53:59;;;;;;;6.32;3.75;;;16.10;60.20;;;;;;10448003;28;20501;-56
2023/01/20 04:59:00;;;;;;;4.78;3.25;;;16.10;60.30;;;;;;10421440;28;20025;-56
2023/01/20 05:04:00;;;;;;;5.50;3.63;;;16.10;60.30;;;;;;10441686;28;20021;-56
2023/01/20 05:09:01;;;;;;;5.03;3.80;;;16.10;60.40;;;;;;10424968;28;20548;-55
2023/01/20 05:14:02;;;;;;;6.30;3.80;;;16.10;60.40;;;;;;10429318;28;20119;-54
2023/01/20 05:19:02;;;;;;;6.45;4.00;;;16.00;60.40;;;;;;10410382;28;20171;-55
2023/01/20 05:24:04;;;;;;;6.18;3.75;;;16.00;60.50;;;;;;10429398;28;20104;-56
2023/01/20 05:29:05;;;;;;;5.45;3.97;;;16.00;60.50;;;;;;10428874;28;20029;-56
2023/01/20 05:34:05;;;;;;;5.22;4.13;;;16.00;60.60;;;;;;10429021;28;20376;-57
2023/01/20 05:39:06;;;;;;;7.10;4.15;;;16.00;60.70;;;;;;10415759;28;20037;-56
2023/01/20 05:44:07;;;;;;;10.85;9.85;;;16.00;60.70;;;;;;10422995;28;20540;-55
2023/01/20 05:49:11;;;;;;;12.88;11.60;;;16.10;61.10;;;;;;10429244;28;20349;-57
2023/01/20 05:54:12;;;;;;;12.25;10.82;;;16.10;61.60;;;;;;10443355;28;20511;-57
2023/01/20 05:59:12;;;;;;;12.68;11.48;;;16.20;62.20;;;;;;10428639;28;20108;-57
2023/01/20 06:04:13;;;;;;;15.13;12.38;;;16.20;62.40;;;;;;10411556;28;20111;-57
2023/01/20 06:09:14;;;;;;;15.88;14.00;;;16.10;62.80;;;;;;10433967;28;20018;-58
2023/01/20 06:14:14;;;;;;;17.45;14.93;;;16.20;63.90;;;;;;10444415;28;20128;-56
2023/01/20 06:19:15;;;;;;;14.15;12.63;;;16.20;64.10;;;;;;10446901;28;20028;-55
2023/01/20 06:24:16;;;;;;;17.13;14.02;;;16.20;63.60;;;;;;10427300;28;20010;-54
2023/01/20 06:29:16;;;;;;;14.77;13.32;;;16.10;64.00;;;;;;10431587;28;20057;-57
2023/01/20 06:34:17;;;;;;;19.83;14.48;;;16.20;64.20;;;;;;10436223;28;20092;-55
2023/01/20 06:39:18;;;;;;;22.30;14.40;;;16.10;64.00;;;;;;10427179;28;20131;-54
2023/01/20 06:44:18;;;;;;;20.08;14.35;;;16.10;64.20;;;;;;10444755;28;20015;-53
2023/01/20 06:49:19;;;;;;;16.48;13.30;;;16.10;64.00;;;;;;10432198;28;20065;-55
2023/01/20 06:54:20;;;;;;;24.75;13.77;;;15.90;64.10;;;;;;10435923;28;20137;-59
2023/01/20 06:59:20;;;;;;;26.98;13.55;;;15.90;64.40;;;;;;10436783;28;20534;-59
2023/01/20 07:04:21;;;;;;;28.73;13.55;;;16.10;64.40;;;;;;10440114;28;20554;-58
2023/01/20 07:09:22;;;;;;;24.08;12.57;;;16.10;63.90;;;;;;10425887;28;20132;-59
2023/01/20 07:14:22;;;;;;;22.70;11.90;;;15.90;64.20;;;;;;10408354;28;20051;-56
2023/01/20 07:19:23;;;;;;;24.38;12.13;;;15.90;63.80;;;;;;10421785;28;20594;-56
2023/01/20 07:24:24;;;;;;;21.45;12.10;;;15.90;63.50;;;;;;10438624;28;20127;-56
2023/01/20 07:29:25;;;;;;;18.70;11.10;;;16.10;63.00;;;;;;10437760;28;20172;-56
2023/01/20 07:34:26;;;;;;;25.27;10.23;;;16.30;62.20;;;;;;10427325;28;20555;-58
2023/01/20 07:39:27;;;;;;;21.95;10.15;;;16.50;62.10;;;;;;10450615;28;20035;-58
2023/01/20 07:44:28;;;;;;;20.92;9.13;;;16.70;61.80;;;;;;10434612;28;20100;-59
2023/01/20 07:49:28;;;;;;;23.75;10.45;;;16.70;61.50;;;;;;10429974;28;20096;-58
2023/01/20 07:54:29;;;;;;;20.83;8.68;;;16.90;61.80;;;;;;10432343;28;20159;-57
2023/01/20 07:59:30;;;;;;;19.50;9.18;;;16.90;61.40;;;;;;10437560;28;20494;-57
2023/01/20 08:04:32;;;;;;;15.88;7.38;;;17.00;60.80;;;;;;10414629;28;20056;-56
2023/01/20 08:09:33;;;;;;;15.23;8.38;;;17.00;60.30;;;;;;10442051;28;20029;-56
2023/01/20 08:14:33;;;;;;;16.80;8.63;;;17.10;60.00;;;;;;10449184;28;20699;-57
2023/01/20 08:19:34;;;;;;;19.73;6.88;;;17.30;59.60;;;;;;10449087;28;20603;-57
2023/01/20 08:24:35;;;;;;;14.52;5.70;;;17.20;59.70;;;;;;10414217;28;20116;-58
2023/01/20 08:29:36;;;;;;;15.52;6.55;;;17.30;60.00;;;;;;10416799;28;20033;-56
2023/01/20 08:34:36;;;;;;;16.42;6.25;;;17.40;59.80;;;;;;10449860;28;20523;-57
2023/01/20 08:39:37;;;;;;;17.90;6.78;;;17.30;60.00;;;;;;10449606;28;20017;-57
2023/01/20 08:44:38;;;;;;;12.57;5.70;;;17.40;59.80;;;;;;10431242;28;20515;-57
2023/01/20 08:49:38;;;;;;;21.17;6.05;;;17.50;59.50;;;;;;10415182;28;20055;-58
2023/01/20 08:54:39;;;;;;;14.82;6.13;;;17.60;59.40;;;;;;10440324;28;20123;-55
2023/01/20 08:59:40;;;;;;;16.63;5.88;;;17.60;59.40;;;;;;10405409;28;20117;-58
2023/01/20 09:04:40;;;;;;;13.40;6.20;;;17.50;60.00;;;;;;10419347;28;20437;-59
2023/01/20 09:09:41;;;;;;;14.23;5.60;;;17.60;60.00;;;;;;10417716;28;20017;-57
2023/01/20 09:14:42;;;;;;;11.05;4.90;;;17.60;59.80;;;;;;10412272;28;20041;-56
2023/01/20 09:19:43;;;;;;;13.63;5.13;;;17.70;59.60;;;;;;10412179;28;20087;-59
2023/01/20 09:24:44;;;;;;;10.65;4.68;;;17.70;59.60;;;;;;10421344;28;20057;-57
2023/01/20 09:29:45;;;;;;;14.55;5.05;;;17.70;59.70;;;;;;10429723;28;20055;-57
2023/01/20 09:34:46;;;;;;;19.33;5.47;;;17.70;59.60;;;;;;10437349;28;20040;-56
2023/01/20 09:45:21;;;;;;;15.80;5.47;;;17.70;59.40;;;;;;10420544;28;20465;-56
2023/01/20 09:56:11;;;;;;;20.50;6.43;;;17.70;59.40;;;;;;10408019;28;20033;-57
2023/01/20 10:01:41;;;;;;;17.60;6.38;;;17.70;59.80;;;;;;10404476;28;20021;-57
2023/01/20 10:06:58;;;;;;;15.32;5.95;;;17.80;59.60;;;;;;10407398;28;20025;-56
2023/01/20 10:12:37;;;;;;;18.50;5.22;;;17.80;59.50;;;;;;10410826;28;20076;-57
2023/01/20 10:18:09;;;;;;;13.27;4.57;;;17.80;60.00;;;;;;10429537;28;20032;-58
2023/01/20 10:23:20;;;;;;;15.85;5.63;;;17.80;60.30;;;;;;10430869;28;20101;-58
2023/01/20 10:28:27;;;;;;;11.13;4.22;;;17.80;60.50;;;;;;10418200;28;20017;-58
2023/01/20 10:33:38;;;;;;;13.52;5.20;;;17.80;60.50;;;;;;10431873;28;20029;-58
2023/01/20 10:38:45;;;;;;;12.23;4.20;;;17.80;60.20;;;;;;10429541;28;20579;-58
2023/01/20 10:43:47;;;;;;;7.45;4.15;;;17.80;60.70;;;;;;10450098;28;20040;-57
2023/01/20 10:49:19;;;;;;;11.48;4.50;;;17.70;61.20;;;;;;10412681;28;20045;-58
2023/01/20 10:54:56;;;;;;;17.23;4.88;;;17.60;61.20;;;;;;10424586;28;20029;-58
2023/01/20 11:00:01;;;;;;;12.70;5.22;;;17.50;61.40;;;;;;10424926;28;20025;-55
2023/01/20 11:05:23;;;;;;;17.27;4.60;;;17.40;61.60;;;;;;10421145;28;20014;-60
2023/01/20 11:10:28;;;;;;;12.45;4.00;;;17.40;61.60;;;;;;10421837;28;20083;-58
2023/01/20 11:15:35;;;;;;;16.75;4.95;;;17.30;61.50;;;;;;10425659;28;20404;-59
2023/01/20 11:20:36;;;;;;;14.95;4.07;;;17.40;61.10;;;;;;10415113;28;20025;-58
2023/01/20 11:25:37;;;;;;;10.85;5.28;;;17.40;61.20;;;;;;10432298;28;20033;-57
2023/01/20 11:30:39;;;;;;;13.50;4.00;;;17.30;61.10;;;;;;10436913;28;20141;-56
2023/01/20 11:35:39;;;;;;;16.30;4.15;;;17.30;61.50;;;;;;10429310;28;20506;-56
2023/01/20 11:40:52;;;;;;;14.57;4.78;;;17.30;62.50;;;;;;10425881;28;20049;-57
2023/01/20 11:46:18;;;;;;;20.13;5.03;;;17.30;62.70;;;;;;10436126;28;20021;-55
2023/01/20 11:51:24;;;;;;;14.90;5.57;;;17.30;62.20;;;;;;10414109;28;20465;-56
2023/01/20 11:56:25;;;;;;;9.75;3.78;;;17.40;62.00;;;;;;10413609;28;20291;-55
2023/01/20 12:01:50;;;;;;;9.00;4.18;;;17.40;62.40;;;;;;10413796;28;20485;-55
2023/01/20 12:07:04;;;;;;;9.55;3.33;;;17.50;62.50;;;;;;10387589;28;20052;-57
2023/01/20 12:12:40;;;;;;;9.90;3.70;;;17.40;62.50;;;;;;10443067;28;20052;-57
2023/01/20 12:18:22;;;;;;;19.48;4.30;;;17.40;62.50;;;;;;10441110;28;20047;-57
2023/01/20 12:23:44;;;;;;;11.90;4.40;;;17.40;62.60;;;;;;10412032;28;20048;-56
2023/01/20 12:29:43;;;;;;;14.50;3.47;;;17.30;63.20;;;;;;10412816;28;20076;-58
2023/01/20 12:34:44;;;;;;;8.73;3.80;;;17.40;63.40;;;;;;10278293;28;20118;-57
2023/01/20 12:39:56;;;;;;;9.00;2.90;;;17.40;63.40;;;;;;10405052;28;20025;-58
2023/01/20 12:45:29;;;;;;;8.35;3.60;;;17.30;63.40;;;;;;10415429;28;20029;-56
2023/01/20 12:51:30;;;;;;;13.80;5.45;;;17.30;63.50;;;;;;10413128;28;20528;-55
2023/01/20 12:57:03;;;;;;;8.97;3.47;;;17.20;63.60;;;;;;10385606;28;20044;-57
2023/01/20 13:02:19;;;;;;;10.20;3.40;;;17.20;63.50;;;;;;10423487;28;20054;-57
2023/01/20 13:07:55;;;;;;;10.70;3.58;;;17.10;63.60;;;;;;10426998;28;20022;-57
2023/01/20 13:13:23;;;;;;;13.10;3.78;;;17.10;63.60;;;;;;10431160;28;20587;-56
2023/01/20 13:19:10;;;;;;;7.43;3.33;;;17.00;63.60;;;;;;10431825;28;20039;-57
2023/01/20 13:24:19;;;;;;;22.33;4.65;;;17.10;62.90;;;;;;10438090;28;20017;-58
2023/01/20 13:29:42;;;;;;;11.43;3.10;;;17.20;63.40;;;;;;10431986;28;20009;-56
2023/01/20 13:34:43;;;;;;;10.30;2.97;;;17.30;63.40;;;;;;10438298;28;20511;-56
2023/01/20 13:39:48;;;;;;;8.82;2.97;;;17.30;63.60;;;;;;10428166;28;20090;-56
2023/01/20 13:45:12;;;;;;;9.50;2.97;;;17.20;63.30;;;;;;10420479;28;20071;-57
2023/01/20 13:50:37;;;;;;;5.30;2.60;;;17.20;63.80;;;;;;10432311;28;20087;-56
2023/01/20 13:55:42;;;;;;;7.85;3.17;;;17.20;64.20;;;;;;10438092;28;20029;-58
2023/01/20 14:00:45;;;;;;;6.10;2.63;;;17.20;64.20;;;;;;10428702;28;20033;-56
2023/01/20 14:06:00;;;;;;;5.80;2.58;;;17.10;63.70;;;;;;10435648;28;20622;-56
2023/01/20 14:11:16;;;;;;;16.45;2.92;;;17.10;63.60;;;;;;10431186;28;20122;-56
2023/01/20 14:16:31;;;;;;;14.15;3.58;;;17.10;63.50;;;;;;10438579;28;20041;-57
2023/01/20 14:21:40;;;;;;;16.88;3.75;;;17.20;64.30;;;;;;10420033;28;20560;-55
2023/01/20 14:26:40;;;;;;;16.07;3.33;;;17.30;64.00;;;;;;10419402;28;20030;-54
2023/01/20 14:31:42;;;;;;;12.63;3.65;;;17.30;64.10;;;;;;10403715;28;20064;-57
2023/01/20 14:36:43;;;;;;;12.07;4.53;;;17.30;64.20;;;;;;10401904;28;20034;-57
2023/01/20 14:41:51;;;;;;;14.57;3.83;;;17.30;64.00;;;;;;10407050;28;20437;-56
2023/01/20 14:46:56;;;;;;;13.30;3.75;;;17.30;64.40;;;;;;10414350;28;20033;-57
2023/01/20 14:51:57;;;;;;;12.70;3.58;;;17.20;64.40;;;;;;10408927;28;20021;-58
2023/01/20 14:57:02;;;;;;;19.85;4.05;;;17.20;64.40;;;;;;10404563;28;20140;-57
2023/01/20 15:02:14;;;;;;;29.10;5.50;;;17.20;63.70;;;;;;10422372;28;20025;-57
2023/01/20 15:07:19;;;;;;;19.42;4.07;;;17.10;64.10;;;;;;10445034;28;20029;-58
2023/01/20 15:12:53;;;;;;;18.50;4.65;;;17.10;63.80;;;;;;10450778;28;20079;-57
2023/01/20 15:18:20;;;;;;;28.42;5.05;;;17.10;63.90;;;;;;10430742;28;20095;-56
2023/01/20 15:23:26;;;;;;;35.03;5.72;;;17.10;64.40;;;;;;10435446;28;20155;-56
2023/01/20 15:28:28;;;;;;;27.38;5.07;;;17.20;64.20;;;;;;10410637;28;20568;-56
2023/01/20 15:33:29;;;;;;;20.33;6.00;;;17.20;64.10;;;;;;10427565;28;20040;-55
2023/01/20 15:38:31;;;;;;;27.17;4.60;;;17.10;64.50;;;;;;10415769;28;20108;-54
2023/01/20 15:43:31;;;;;;;30.10;5.47;;;17.10;64.30;;;;;;10436496;28;20029;-57
2023/01/20 15:48:32;;;;;;;30.02;8.57;;;17.10;64.20;;;;;;10437161;28;20107;-55
2023/01/20 15:53:33;;;;;;;27.88;6.32;;;17.10;64.30;;;;;;10424561;28;20152;-56
2023/01/20 15:58:36;;;;;;;20.50;5.20;;;17.10;64.10;;;;;;10435936;28;20025;-56
2023/01/20 16:03:37;;;;;;;23.90;4.68;;;17.00;64.90;;;;;;10422949;28;20761;-56
2023/01/20 16:08:38;;;;;;;24.13;5.13;;;17.10;64.50;;;;;;10437166;28;20816;-56
2023/01/20 16:13:39;;;;;;;19.55;5.72;;;17.10;64.30;;;;;;10419475;28;20041;-57
2023/01/20 16:18:40;;;;;;;20.98;3.95;;;17.10;65.50;;;;;;10441506;28;20704;-57
2023/01/20 16:23:42;;;;;;;21.35;5.68;;;17.10;65.50;;;;;;10441992;28;20023;-57
2023/01/20 16:28:42;;;;;;;18.77;4.10;;;17.20;65.00;;;;;;10415069;28;20029;-56
2023/01/20 16:33:43;;;;;;;14.35;4.07;;;17.20;65.00;;;;;;10413631;28;20033;-56
2023/01/20 16:38:44;;;;;;;13.38;4.78;;;17.00;64.40;;;;;;10412160;28;20132;-57
2023/01/20 16:43:45;;;;;;;12.77;4.35;;;16.80;63.60;;;;;;10439331;28;20021;-56
2023/01/20 16:48:46;;;;;;;8.65;3.50;;;16.80;62.90;;;;;;10432586;28;20047;-58
2023/01/20 16:53:47;;;;;;;16.63;5.88;;;16.90;62.00;;;;;;10422368;28;20033;-61
2023/01/20 16:58:50;;;;;;;14.60;4.80;;;17.00;61.20;;;;;;10425933;28;20032;-57
2023/01/20 17:03:55;;;;;;;18.98;4.90;;;17.30;61.00;;;;;;10437644;28;20032;-59
2023/01/20 17:08:58;;;;;;;14.68;5.68;;;17.40;62.20;;;;;;10437463;28;20059;-61
2023/01/20 17:14:02;;;;;;;27.40;6.25;;;17.40;62.10;;;;;;10444283;28;20049;-56
2023/01/20 17:19:04;;;;;;;21.30;5.93;;;17.50;61.80;;;;;;10419669;28;20083;-58
2023/01/20 17:24:06;;;;;;;27.20;7.75;;;17.60;61.00;;;;;;10444964;28;20021;-58
2023/01/20 17:29:07;;;;;;;36.63;8.80;;;17.60;60.60;;;;;;10437178;28;20028;-60
2023/01/20 17:34:10;;;;;;;27.25;8.63;;;17.60;61.10;;;;;;10422477;28;20086;-61
2023/01/20 17:39:10;;;;;;;27.80;8.57;;;17.70;61.00;;;;;;10437238;28;20046;-58
2023/01/20 17:44:11;;;;;;;25.77;7.70;;;18.10;59.40;;;;;;10446220;28;20025;-61
2023/01/20 17:49:12;;;;;;;17.25;7.45;;;18.10;58.80;;;;;;10439910;28;20017;-61
2023/01/20 17:54:13;;;;;;;26.77;7.65;;;17.90;59.00;;;;;;10418915;28;20037;-58
2023/01/20 17:59:15;;;;;;;10.40;5.85;;;17.90;58.70;;;;;;10425988;28;20046;-60
2023/01/20 18:04:16;;;;;;;21.48;7.20;;;17.70;58.40;;;;;;10424840;28;20030;-58
2023/01/20 18:09:16;;;;;;;13.30;6.05;;;17.80;58.60;;;;;;10399822;28;20092;-57
2023/01/20 18:14:17;;;;;;;14.55;6.90;;;17.60;59.10;;;;;;10402128;28;20076;-57
2023/01/20 18:19:18;;;;;;;11.40;5.57;;;17.60;59.70;;;;;;10407094;28;20522;-58
2023/01/20 18:24:18;;;;;;;12.15;5.10;;;17.50;60.20;;;;;;10437254;28;20056;-56
2023/01/20 18:29:19;;;;;;;13.18;5.85;;;17.30;60.60;;;;;;10420805;28;20691;-57
2023/01/20 18:34:20;;;;;;;8.65;5.38;;;17.10;61.10;;;;;;10412449;28;20124;-56
2023/01/20 18:39:23;;;;;;;17.08;5.72;;;17.00;61.40;;;;;;10417619;28;20439;-57
2023/01/20 18:44:24;;;;;;;12.00;5.45;;;16.90;62.10;;;;;;10432610;28;20379;-58
2023/01/20 18:49:25;;;;;;;10.52;5.38;;;16.80;62.40;;;;;;10431201;28;20534;-57
2023/01/20 18:54:28;;;;;;;12.20;5.95;;;16.80;62.90;;;;;;10433281;28;20021;-59
2023/01/20 18:59:29;;;;;;;13.18;5.45;;;16.70;63.00;;;;;;10431418;28;20022;-59
2023/01/20 19:04:32;;;;;;;8.63;4.90;;;16.50;63.20;;;;;;10433350;28;20485;-58
2023/01/20 19:09:33;;;;;;;9.27;5.18;;;16.40;63.40;;;;;;10433078;28;20021;-57
2023/01/20 19:14:33;;;;;;;8.95;5.13;;;16.30;64.20;;;;;;10413984;28;21065;-58
2023/01/20 19:19:34;;;;;;;9.07;4.78;;;16.30;64.40;;;;;;10410696;28;20022;-58
2023/01/20 19:24:34;;;;;;;12.50;5.75;;;16.30;64.50;;;;;;10431584;28;20063;-59
2023/01/20 19:29:35;;;;;;;12.50;5.85;;;16.30;64.60;;;;;;10408099;28;20108;-56
2023/01/20 19:34:36;;;;;;;12.50;6.28;;;16.30;64.70;;;;;;10409150;28;20470;-59
2023/01/20 19:39:36;;;;;;;10.10;5.85;;;16.30;64.80;;;;;;10437320;28;20108;-61
2023/01/20 19:44:37;;;;;;;9.90;6.78;;;16.20;64.90;;;;;;10431015;28;20017;-59
2023/01/20 19:49:38;;;;;;;8.93;5.75;;;16.10;65.00;;;;;;10427256;28;20064;-58
2023/01/20 19:54:38;;;;;;;7.85;5.70;;;16.10;65.20;;;;;;10428867;28;20128;-60
2023/01/20 19:59:39;;;;;;;10.40;5.55;;;16.00;65.20;;;;;;10404972;28;20117;-58
2023/01/20 20:04:40;;;;;;;9.10;5.65;;;16.00;65.40;;;;;;10422570;28;20125;-60
2023/01/20 20:09:41;;;;;;;9.10;6.00;;;16.00;65.50;;;;;;10425922;28;20441;-60
2023/01/20 20:14:42;;;;;;;9.50;6.20;;;15.90;65.30;;;;;;10444306;28;20033;-59
2023/01/20 20:19:42;;;;;;;8.20;5.78;;;15.90;65.60;;;;;;10427441;28;20017;-60
2023/01/20 20:24:43;;;;;;;9.43;6.18;;;15.90;65.70;;;;;;10431311;28;20040;-59
2023/01/20 20:29:44;;;;;;;9.77;6.50;;;15.80;66.40;;;;;;10425190;28;20030;-61
2023/01/20 20:34:44;;;;;;;8.13;5.97;;;15.80;65.80;;;;;;10417287;28;20037;-58
2023/01/20 20:39:45;;;;;;;8.02;5.95;;;15.80;65.60;;;;;;10424637;28;20109;-60
2023/01/20 20:44:46;;;;;;;8.50;5.88;;;15.70;65.40;;;;;;10428130;28;20056;-59
2023/01/20 20:49:46;;;;;;;9.13;6.18;;;15.60;65.70;;;;;;10417226;28;20187;-58
2023/01/20 20:54:48;;;;;;;7.97;6.03;;;15.50;65.60;;;;;;10445037;28;20120;-59
2023/01/20 20:59:48;;;;;;;7.32;5.75;;;15.40;65.60;;;;;;10416108;28;20032;-60
2023/01/20 21:04:49;;;;;;;11.13;6.88;;;15.40;65.50;;;;;;10430461;28;20116;-59
2023/01/20 21:09:51;;;;;;;8.13;5.20;;;15.40;65.40;;;;;;10427758;28;20492;-59
2023/01/20 21:14:52;;;;;;;7.75;5.88;;;15.50;65.30;;;;;;10432715;28;20036;-59
2023/01/20 21:19:53;;;;;;;10.70;5.20;;;15.50;65.10;;;;;;10411935;28;20033;-60
2023/01/20 21:24:53;;;;;;;8.77;5.80;;;15.50;64.80;;;;;;10434077;28;20123;-59
2023/01/20 21:29:54;;;;;;;10.60;5.78;;;15.50;64.70;;;;;;10458127;28;20607;-60
2023/01/20 21:34:55;;;;;;;7.53;5.70;;;15.60;64.40;;;;;;10445315;28;20065;-59
2023/01/20 21:39:55;;;;;;;7.50;5.50;;;15.60;64.20;;;;;;10418126;28;20049;-59
2023/01/20 21:44:56;;;;;;;9.43;5.80;;;15.70;64.10;;;;;;10418323;28;20033;-58
2023/01/20 21:55:18;;;;;;;7.93;5.80;;;15.80;63.60;;;;;;10406257;28;20739;-59
2023/01/20 22:00:19;;;;;;;8.35;5.22;;;15.80;63.40;;;;;;10406094;28;20457;-60
2023/01/20 22:05:19;;;;;;;9.82;5.57;;;15.80;63.30;;;;;;10406170;28;20060;-60
2023/01/20 22:10:20;;;;;;;7.88;5.88;;;15.80;63.20;;;;;;10404603;28;20493;-59
2023/01/20 22:15:21;;;;;;;6.82;4.90;;;15.80;63.00;;;;;;10403976;28;20123;-59
2023/01/20 22:20:22;;;;;;;7.60;5.40;;;15.80;63.00;;;;;;10430815;28;20041;-60
2023/01/20 22:25:22;;;;;;;7.13;5.82;;;15.80;63.10;;;;;;10445194;28;20092;-60
2023/01/20 22:30:23;;;;;;;6.80;5.28;;;15.80;63.00;;;;;;10431842;28;20017;-60
2023/01/20 22:35:24;;;;;;;8.52;5.45;;;15.80;62.90;;;;;;10410446;28;20109;-60
2023/01/20 22:40:24;;;;;;;7.82;4.95;;;15.80;62.80;;;;;;10424189;28;20105;-59
2023/01/20 22:45:26;;;;;;;7.03;4.90;;;15.80;62.80;;;;;;10423674;28;20108;-60
2023/01/20 22:50:27;;;;;;;5.90;4.93;;;15.80;62.80;;;;;;10424220;28;20082;-59
2023/01/20 22:55:28;;;;;;;6.15;4.53;;;15.80;62.90;;;;;;10408646;28;20108;-60
2023/01/20 23:00:28;;;;;;;9.05;5.97;;;15.80;62.80;;;;;;10404437;28;20536;-59
2023/01/20 23:05:29;;;;;;;7.15;5.18;;;15.80;62.70;;;;;;10403689;28;20045;-59
2023/01/20 23:10:45;;;;;;;7.72;5.30;;;15.80;62.60;;;;;;10404789;28;20017;-59
2023/01/20 23:15:46;;;;;;;5.63;4.60;;;15.80;62.60;;;;;;10405863;28;20069;-58
2023/01/20 23:20:49;;;;;;;6.03;4.70;;;15.80;62.60;;;;;;10419004;28;20100;-60
2023/01/20 23:25:50;;;;;;;6.20;4.22;;;15.80;62.40;;;;;;10444135;28;20024;-60
2023/01/20 23:30:51;;;;;;;6.10;4.68;;;15.90;62.40;;;;;;10449454;28;20025;-60
2023/01/20 23:35:51;;;;;;;6.07;4.35;;;15.90;62.30;;;;;;10451757;28;20060;-58
2023/01/20 23:40:52;;;;;;;6.60;4.97;;;15.90;62.20;;;;;;10452749;28;20052;-60
2023/01/20 23:45:59;;;;;;;5.18;4.55;;;15.80;62.30;;;;;;10426787;28;20129;-60
2023/01/20 23:51:00;;;;;;;6.07;4.38;;;15.90;62.20;;;;;;10417071;28;20022;-60
2023/01/20 23:56:05;;;;;;;6.40;4.35;;;15.90;62.20;;;;;;10409192;28;20021;-60
